Time;durP1;ratioP1;P1;durP2;ratioP2;P2;SDS_P1;SDS_P2;PMS_P1;PMS_P2;Temp;Humidity;BMP_temperature;BMP_pressure;BME280_temperature;BME280_humidity;BME280_pressure;Samples;Min_cycle;Max_cycle;Signal;HPM_P1;HPM_P2
2022/03/27 00:01:26;;;;;;;;;;;22.80;38.70;;;;;;5069940;28;20388;-61
2022/03/27 00:03:51;;;;;;;;;;;22.90;38.80;;;;;;5071144;28;19928;-61
2022/03/27 00:06:17;;;;;;;;;;;22.90;39.00;;;;;;5071667;28;19947;-61
2022/03/27 00:08:42;;;;;;;;;;;22.90;39.00;;;;;;5062824;28;19956;-61
2022/03/27 00:11:28;;;;;;;;;;;22.80;39.10;;;;;;5046935;28;19917;-61
2022/03/27 00:13:55;;;;;;;;;;;22.80;39.00;;;;;;5065547;28;19989;-61
2022/03/27 00:16:22;;;;;;;;;;;22.70;39.20;;;;;;5066123;28;19948;-61
2022/03/27 00:18:47;;;;;;;;;;;22.70;39.10;;;;;;5062749;28;19971;-61
2022/03/27 00:21:13;;;;;;;;;;;22.70;39.20;;;;;;5072760;28;19919;-61
2022/03/27 00:23:39;;;;;;;;;;;22.70;39.20;;;;;;5069311;28;19936;-61
2022/03/27 00:26:04;;;;;;;;;;;22.60;39.30;;;;;;5066758;28;19916;-61
2022/03/27 00:28:33;;;;;;;;;;;22.50;39.40;;;;;;5047433;28;19948;-61
2022/03/27 00:31:02;;;;;;;;;;;22.40;39.40;;;;;;5069726;28;20312;-61
2022/03/27 00:33:27;;;;;;;;;;;22.40;39.50;;;;;;5071086;28;19939;-61
2022/03/27 00:35:54;;;;;;;;;;;22.30;39.50;;;;;;5068293;28;19913;-61
2022/03/27 00:38:19;;;;;;;;;;;22.30;39.50;;;;;;5062460;28;19921;-61
2022/03/27 00:40:45;;;;;;;;;;;22.30;39.60;;;;;;5052387;28;19916;-61
2022/03/27 00:43:10;;;;;;;;;;;22.30;39.60;;;;;;5070408;28;19943;-61
2022/03/27 00:45:36;;;;;;;;;;;22.20;39.60;;;;;;5068063;28;19966;-61
2022/03/27 00:48:01;;;;;;;;;;;22.20;39.60;;;;;;5054503;28;20007;-61
2022/03/27 00:50:27;;;;;;;;;;;22.20;39.60;;;;;;5055843;28;19920;-61
2022/03/27 00:52:52;;;;;;;;;;;22.20;39.60;;;;;;5059372;28;20431;-61
2022/03/27 00:55:18;;;;;;;;;;;22.20;39.50;;;;;;5070521;28;19912;-61
2022/03/27 00:57:43;;;;;;;;;;;22.20;39.50;;;;;;5051556;28;19921;-61
2022/03/27 01:00:09;;;;;;;;;;;22.20;39.60;;;;;;5065354;28;19959;-61
2022/03/27 01:02:36;;;;;;;;;;;22.10;39.60;;;;;;5062723;28;20380;-61
2022/03/27 01:05:01;;;;;;;;;;;22.10;39.60;;;;;;5062934;28;20431;-61
2022/03/27 01:07:26;;;;;;;;;;;22.00;39.50;;;;;;5064198;28;19912;-61
2022/03/27 01:09:53;;;;;;;;;;;22.00;39.50;;;;;;5061027;28;19940;-61
2022/03/27 01:12:22;;;;;;;;;;;22.10;39.60;;;;;;5052292;28;19919;-61
2022/03/27 01:14:48;;;;;;;;;;;22.10;39.50;;;;;;5071283;28;19924;-61
2022/03/27 01:17:16;;;;;;;;;;;22.10;39.40;;;;;;5068150;28;19912;-61
2022/03/27 01:19:42;;;;;;;;;;;22.20;39.50;;;;;;5066684;28;20298;-61
2022/03/27 01:22:08;;;;;;;;;;;22.20;39.50;;;;;;5057647;28;20317;-61
2022/03/27 01:24:33;;;;;;;;;;;22.20;39.50;;;;;;5064617;28;19988;-61
2022/03/27 01:26:59;;;;;;;;;;;22.30;39.40;;;;;;5065510;28;19920;-61
2022/03/27 01:29:24;;;;;;;;;;;22.40;39.40;;;;;;5042670;28;19912;-61
2022/03/27 01:31:51;;;;;;;;;;;22.50;39.10;;;;;;5066519;28;19920;-61
2022/03/27 01:34:17;;;;;;;;;;;22.70;38.80;;;;;;5062991;28;19912;-61
2022/03/27 01:36:42;;;;;;;;;;;23.00;38.40;;;;;;5063503;28;20272;-61
2022/03/27 01:39:09;;;;;;;;;;;23.30;38.00;;;;;;5070078;28;19958;-61
2022/03/27 01:41:35;;;;;;;;;;;23.60;37.60;;;;;;5067193;28;19919;-61
2022/03/27 01:44:00;;;;;;;;;;;23.80;37.10;;;;;;5046110;28;19918;-61
2022/03/27 01:46:30;;;;;;;;;;;24.10;36.90;;;;;;5070441;28;19971;-61
2022/03/27 01:48:55;;;;;;;;;;;24.20;36.80;;;;;;5070347;28;19944;-61
2022/03/27 01:51:21;;;;;;;;;;;24.30;36.40;;;;;;5070524;28;19917;-61
2022/03/27 01:53:46;;;;;;;;;;;24.30;36.20;;;;;;5052105;28;19921;-61
2022/03/27 01:56:12;;;;;;;;;;;24.30;36.10;;;;;;5058887;28;19913;-61
2022/03/27 01:58:38;;;;;;;;;;;24.30;36.20;;;;;;5069283;28;19920;-61
2022/03/27 02:01:05;;;;;;;;;;;24.30;36.10;;;;;;5065988;28;20292;-61
2022/03/27 02:03:30;;;;;;;;;;;24.40;36.80;;;;;;5071000;28;19981;-61
2022/03/27 02:05:56;;;;;;;;;;;24.40;36.10;;;;;;5064535;28;19924;-61
2022/03/27 02:08:22;;;;;;;;;;;24.40;36.10;;;;;;5048436;28;19916;-61
2022/03/27 02:10:47;;;;;;;;;;;24.50;36.00;;;;;;5065572;28;19916;-61
2022/03/27 02:13:14;;;;;;;;;;;24.50;36.00;;;;;;5059390;28;19962;-61
2022/03/27 02:15:39;;;;;;;;;;;24.50;35.90;;;;;;5073717;28;19913;-61
2022/03/27 02:18:05;;;;;;;;;;;24.50;35.90;;;;;;5075071;28;20358;-61
2022/03/27 02:20:30;;;;;;;;;;;24.50;35.90;;;;;;5066253;28;19960;-61
2022/03/27 02:22:56;;;;;;;;;;;24.40;35.90;;;;;;5068941;28;19935;-61
2022/03/27 02:25:22;;;;;;;;;;;24.40;35.90;;;;;;5070005;28;19917;-61
2022/03/27 02:27:47;;;;;;;;;;;24.40;35.90;;;;;;5056404;28;19960;-61
2022/03/27 02:30:15;;;;;;;;;;;24.30;35.90;;;;;;5064581;28;19924;-61
2022/03/27 02:32:40;;;;;;;;;;;24.30;35.90;;;;;;5055003;28;19948;-61
2022/03/27 02:35:06;;;;;;;;;;;24.30;36.10;;;;;;5071087;28;20402;-61
2022/03/27 02:37:31;;;;;;;;;;;24.30;36.20;;;;;;5068959;28;19919;-61
2022/03/27 02:39:57;;;;;;;;;;;24.20;36.20;;;;;;5063617;28;20372;-61
2022/03/27 02:42:22;;;;;;;;;;;24.10;36.00;;;;;;5067487;28;20328;-61
2022/03/27 02:44:48;;;;;;;;;;;24.10;36.10;;;;;;5067714;28;19917;-61
2022/03/27 02:47:13;;;;;;;;;;;24.10;36.00;;;;;;5071250;28;19951;-61
2022/03/27 02:49:39;;;;;;;;;;;24.10;36.00;;;;;;5072888;28;19912;-61
2022/03/27 02:52:04;;;;;;;;;;;24.10;36.00;;;;;;5067454;28;20261;-61
2022/03/27 02:54:30;;;;;;;;;;;24.10;35.90;;;;;;5070056;28;19920;-61
2022/03/27 02:56:55;;;;;;;;;;;24.10;35.80;;;;;;5056010;28;19913;-61
2022/03/27 02:59:22;;;;;;;;;;;24.10;36.00;;;;;;5070113;28;19927;-61
2022/03/27 03:01:47;;;;;;;;;;;24.10;35.90;;;;;;5055780;28;19931;-61
2022/03/27 03:04:14;;;;;;;;;;;24.10;35.90;;;;;;5053790;28;19920;-61
2022/03/27 03:06:41;;;;;;;;;;;24.10;35.90;;;;;;5054942;28;19916;-61
2022/03/27 03:09:06;;;;;;;;;;;24.20;35.90;;;;;;5058602;28;19916;-61
2022/03/27 03:11:32;;;;;;;;;;;24.10;35.90;;;;;;5060891;28;19980;-61
2022/03/27 03:13:57;;;;;;;;;;;24.20;35.90;;;;;;5068874;28;19913;-61
2022/03/27 03:16:23;;;;;;;;;;;24.20;36.00;;;;;;5069148;28;19912;-61
2022/03/27 03:18:48;;;;;;;;;;;24.20;36.00;;;;;;5051375;28;19924;-61
2022/03/27 03:21:14;;;;;;;;;;;24.30;36.10;;;;;;5069446;28;19920;-61
2022/03/27 03:23:39;;;;;;;;;;;24.30;36.10;;;;;;5065950;28;19971;-61
2022/03/27 03:26:05;;;;;;;;;;;24.30;36.10;;;;;;5069609;28;19963;-61
2022/03/27 03:28:30;;;;;;;;;;;24.20;36.00;;;;;;5052108;28;20251;-61
2022/03/27 03:30:56;;;;;;;;;;;24.20;35.80;;;;;;5049136;28;20360;-61
2022/03/27 03:33:21;;;;;;;;;;;24.30;35.90;;;;;;5069656;28;19919;-61
2022/03/27 03:35:47;;;;;;;;;;;24.30;35.90;;;;;;5072531;28;19917;-61
2022/03/27 03:38:12;;;;;;;;;;;24.30;35.70;;;;;;5071462;28;19952;-61
2022/03/27 03:40:40;;;;;;;;;;;24.30;35.70;;;;;;5070306;28;19934;-61
2022/03/27 03:43:05;;;;;;;;;;;24.30;35.60;;;;;;5064038;28;20495;-61
2022/03/27 03:45:31;;;;;;;;;;;24.30;35.40;;;;;;5053228;28;19980;-61
2022/03/27 03:47:56;;;;;;;;;;;24.40;35.50;;;;;;5067332;28;20430;-62
2022/03/27 03:50:22;;;;;;;;;;;24.40;35.40;;;;;;5072190;28;19923;-61
2022/03/27 03:52:48;;;;;;;;;;;24.40;35.40;;;;;;5067985;28;19920;-61
2022/03/27 03:55:13;;;;;;;;;;;24.30;35.40;;;;;;5066376;28;19924;-61
2022/03/27 03:57:39;;;;;;;;;;;24.30;35.50;;;;;;5065286;28;19933;-61
2022/03/27 04:00:05;;;;;;;;;;;24.30;35.50;;;;;;5064675;28;19912;-61
2022/03/27 04:02:30;;;;;;;;;;;24.30;35.40;;;;;;5067614;28;19927;-61
2022/03/27 04:04:56;;;;;;;;;;;24.30;35.40;;;;;;5047990;28;19936;-61
2022/03/27 04:07:21;;;;;;;;;;;24.30;35.40;;;;;;5065257;28;19932;-62
2022/03/27 04:09:46;;;;;;;;;;;24.20;35.30;;;;;;5066202;28;19919;-61
2022/03/27 04:12:12;;;;;;;;;;;24.30;35.40;;;;;;5071753;28;19939;-61
2022/03/27 04:14:39;;;;;;;;;;;24.30;35.30;;;;;;5066834;28;20062;-61
2022/03/27 04:17:04;;;;;;;;;;;24.30;35.30;;;;;;5054717;28;19913;-61
2022/03/27 04:19:30;;;;;;;;;;;24.40;35.30;;;;;;5068982;28;20312;-62
2022/03/27 04:21:55;;;;;;;;;;;24.40;35.30;;;;;;5047349;28;19912;-61
2022/03/27 04:24:21;;;;;;;;;;;24.40;35.30;;;;;;5065535;28;20283;-61
2022/03/27 04:26:46;;;;;;;;;;;24.30;35.30;;;;;;5069102;28;19924;-61
2022/03/27 04:29:12;;;;;;;;;;;24.30;35.40;;;;;;5068224;28;20059;-61
2022/03/27 04:31:38;;;;;;;;;;;24.20;35.40;;;;;;5067074;28;20207;-61
2022/03/27 04:34:04;;;;;;;;;;;24.20;35.30;;;;;;5050102;28;19959;-61
2022/03/27 04:36:29;;;;;;;;;;;24.20;35.50;;;;;;5068266;28;19917;-61
2022/03/27 04:38:55;;;;;;;;;;;24.20;35.40;;;;;;5071520;28;19912;-61
2022/03/27 04:41:20;;;;;;;;;;;24.10;35.30;;;;;;5073341;28;19997;-61
2022/03/27 04:43:48;;;;;;;;;;;24.20;35.40;;;;;;5069517;28;19916;-61
2022/03/27 04:46:14;;;;;;;;;;;24.20;35.40;;;;;;5069692;28;19920;-61
2022/03/27 04:48:39;;;;;;;;;;;24.20;35.40;;;;;;5057627;28;20307;-61
2022/03/27 04:51:05;;;;;;;;;;;24.30;35.40;;;;;;5063185;28;19927;-61
2022/03/27 04:53:30;;;;;;;;;;;24.30;35.30;;;;;;5073438;28;20280;-61
2022/03/27 04:55:56;;;;;;;;;;;24.30;35.30;;;;;;5063389;28;19998;-62
2022/03/27 04:58:21;;;;;;;;;;;24.30;35.20;;;;;;5055893;28;19935;-61
2022/03/27 05:00:47;;;;;;;;;;;24.30;35.10;;;;;;5064557;28;20382;-61
2022/03/27 05:03:12;;;;;;;;;;;24.40;35.20;;;;;;5068763;28;19969;-61
2022/03/27 05:05:38;;;;;;;;;;;24.40;35.10;;;;;;5053280;28;19975;-61
2022/03/27 05:08:04;;;;;;;;;;;24.40;35.10;;;;;;5069787;28;19950;-61
2022/03/27 05:10:30;;;;;;;;;;;24.40;35.10;;;;;;5053658;28;19990;-61
2022/03/27 05:12:56;;;;;;;;;;;24.40;35.00;;;;;;5055422;28;19912;-61
2022/03/27 05:15:22;;;;;;;;;;;24.40;35.10;;;;;;5065259;28;19982;-61
2022/03/27 05:17:51;;;;;;;;;;;24.40;35.10;;;;;;5054098;28;19916;-61
2022/03/27 05:20:17;;;;;;;;;;;24.40;35.00;;;;;;5066900;28;20372;-61
2022/03/27 05:22:43;;;;;;;;;;;24.40;35.10;;;;;;5049806;28;19923;-61
2022/03/27 05:25:09;;;;;;;;;;;24.30;35.00;;;;;;5053073;28;19924;-61
2022/03/27 05:27:40;;;;;;;;;;;24.40;35.10;;;;;;5065098;28;19913;-62
2022/03/27 05:30:06;;;;;;;;;;;24.40;35.00;;;;;;5058118;28;19950;-61
2022/03/27 05:32:32;;;;;;;;;;;24.40;35.00;;;;;;5067870;28;19912;-61
2022/03/27 05:34:57;;;;;;;;;;;24.40;35.00;;;;;;5065521;28;19983;-61
2022/03/27 05:37:23;;;;;;;;;;;24.50;35.00;;;;;;5062693;28;19912;-61
2022/03/27 05:39:48;;;;;;;;;;;24.40;35.00;;;;;;5065964;28;19920;-61
2022/03/27 05:42:14;;;;;;;;;;;24.40;35.00;;;;;;5055251;28;19991;-61
2022/03/27 05:44:39;;;;;;;;;;;24.40;34.90;;;;;;5069421;28;19912;-60
2022/03/27 05:47:05;;;;;;;;;;;24.40;35.00;;;;;;5072710;28;19950;-61
2022/03/27 05:49:30;;;;;;;;;;;24.40;34.90;;;;;;5057697;28;19939;-61
2022/03/27 05:51:55;;;;;;;;;;;24.50;35.00;;;;;;5063752;28;19943;-61
2022/03/27 05:54:21;;;;;;;;;;;24.50;34.90;;;;;;5072988;28;19912;-61
2022/03/27 05:56:46;;;;;;;;;;;24.40;34.80;;;;;;5054166;28;19943;-61
2022/03/27 05:59:13;;;;;;;;;;;24.50;34.90;;;;;;5070077;28;19916;-61
2022/03/27 06:01:38;;;;;;;;;;;24.40;34.80;;;;;;5056129;28;19995;-61
2022/03/27 06:04:04;;;;;;;;;;;24.40;34.80;;;;;;5072425;28;19955;-61
2022/03/27 06:06:29;;;;;;;;;;;24.40;34.80;;;;;;5072874;28;19978;-61
2022/03/27 06:08:57;;;;;;;;;;;24.40;34.70;;;;;;5073790;28;19922;-61
2022/03/27 06:11:23;;;;;;;;;;;24.40;34.70;;;;;;5071750;28;20468;-61
2022/03/27 06:13:49;;;;;;;;;;;24.40;34.70;;;;;;5056713;28;19917;-61
2022/03/27 06:16:14;;;;;;;;;;;24.40;34.70;;;;;;5054996;28;19976;-61
2022/03/27 06:18:39;;;;;;;;;;;24.40;34.70;;;;;;5070817;28;19917;-61
2022/03/27 06:21:05;;;;;;;;;;;24.30;34.60;;;;;;5073290;28;19916;-61
2022/03/27 06:23:30;;;;;;;;;;;24.30;34.70;;;;;;5065555;28;19955;-61
2022/03/27 06:25:56;;;;;;;;;;;24.30;34.70;;;;;;5075873;28;19913;-61
2022/03/27 06:28:21;;;;;;;;;;;24.30;34.60;;;;;;5074315;28;19913;-61
2022/03/27 06:30:47;;;;;;;;;;;24.30;34.70;;;;;;5072879;28;20003;-61
2022/03/27 06:33:14;;;;;;;;;;;24.40;34.70;;;;;;5056159;28;20405;-61
2022/03/27 06:35:40;;;;;;;;;;;24.30;34.60;;;;;;5071041;28;19921;-61
2022/03/27 06:38:05;;;;;;;;;;;24.30;34.60;;;;;;5067549;28;20690;-61
2022/03/27 06:40:31;;;;;;;;;;;24.30;34.60;;;;;;5070967;28;19913;-61
2022/03/27 06:42:57;;;;;;;;;;;24.30;34.50;;;;;;5073681;28;19908;-61
2022/03/27 06:45:22;;;;;;;;;;;24.30;34.50;;;;;;5075580;28;19924;-61
2022/03/27 06:47:49;;;;;;;;;;;24.30;34.50;;;;;;5058880;28;19912;-61
2022/03/27 06:50:15;;;;;;;;;;;24.40;34.60;;;;;;5063854;28;19920;-61
2022/03/27 06:52:40;;;;;;;;;;;24.30;34.50;;;;;;5053340;28;20343;-61
2022/03/27 06:55:06;;;;;;;;;;;24.30;34.50;;;;;;5054018;28;20390;-61
2022/03/27 06:57:33;;;;;;;;;;;24.30;34.50;;;;;;5051528;28;20455;-61
2022/03/27 07:05:27;;;;;;;;;;;24.30;34.60;;;;;;5067958;28;19927;-61
2022/03/27 07:07:52;;;;;;;;;;;24.30;34.50;;;;;;5067699;28;19947;-61
2022/03/27 07:10:18;;;;;;;;;;;24.30;34.50;;;;;;5065704;28;19913;-60
2022/03/27 07:12:44;;;;;;;;;;;24.20;34.50;;;;;;5065360;28;19934;-61
2022/03/27 07:15:09;;;;;;;;;;;24.20;34.60;;;;;;5067124;28;19919;-61
2022/03/27 07:17:48;;;;;;;;;;;24.10;34.60;;;;;;5054339;28;20418;-61
2022/03/27 07:20:17;;;;;;;;;;;24.00;34.60;;;;;;5063269;28;19920;-61
2022/03/27 07:22:43;;;;;;;;;;;23.90;34.70;;;;;;5061587;28;19990;-61
2022/03/27 07:25:09;;;;;;;;;;;23.80;34.80;;;;;;5055995;28;19916;-61
2022/03/27 07:27:35;;;;;;;;;;;23.60;34.90;;;;;;5069860;28;19921;-61
2022/03/27 07:30:01;;;;;;;;;;;23.50;35.00;;;;;;5063000;28;20303;-61
2022/03/27 07:32:26;;;;;;;;;;;23.40;35.10;;;;;;5069729;28;19912;-61
2022/03/27 07:34:52;;;;;;;;;;;23.40;35.10;;;;;;5069339;28;19967;-61
2022/03/27 07:37:17;;;;;;;;;;;23.30;35.20;;;;;;5071236;28;19912;-61
2022/03/27 07:39:42;;;;;;;;;;;23.30;35.30;;;;;;5065553;28;19942;-61
2022/03/27 07:42:08;;;;;;;;;;;23.20;35.40;;;;;;5048665;28;19967;-61
2022/03/27 07:44:33;;;;;;;;;;;23.10;35.50;;;;;;5068088;28;19920;-60
2022/03/27 07:46:59;;;;;;;;;;;23.10;35.70;;;;;;5070382;28;20847;-61
2022/03/27 07:49:25;;;;;;;;;;;23.00;35.90;;;;;;5066553;28;19928;-61
2022/03/27 07:51:51;;;;;;;;;;;22.90;35.90;;;;;;5064842;28;19928;-61
2022/03/27 07:54:16;;;;;;;;;;;22.90;36.00;;;;;;5068054;28;19916;-61
2022/03/27 07:56:42;;;;;;;;;;;22.80;36.10;;;;;;5068805;28;19913;-61
2022/03/27 07:59:07;;;;;;;;;;;22.80;36.20;;;;;;5060666;28;19927;-61
2022/03/27 08:01:33;;;;;;;;;;;22.80;36.20;;;;;;5062848;28;19921;-61
2022/03/27 08:03:59;;;;;;;;;;;22.80;36.20;;;;;;5071190;28;20007;-61
2022/03/27 08:06:25;;;;;;;;;;;22.80;36.30;;;;;;5067140;28;20031;-61
2022/03/27 08:08:50;;;;;;;;;;;22.80;36.30;;;;;;5062920;28;19959;-61
2022/03/27 08:11:16;;;;;;;;;;;22.80;36.30;;;;;;5065094;28;19920;-61
2022/03/27 08:13:42;;;;;;;;;;;22.80;36.20;;;;;;5049821;28;19967;-61
2022/03/27 08:16:07;;;;;;;;;;;22.90;36.20;;;;;;5062401;28;19971;-61
2022/03/27 08:18:33;;;;;;;;;;;22.80;36.00;;;;;;5067589;28;19925;-61
2022/03/27 08:20:58;;;;;;;;;;;22.90;35.90;;;;;;5060986;28;19913;-61
2022/03/27 08:23:24;;;;;;;;;;;23.00;35.90;;;;;;5065517;28;20407;-61
2022/03/27 08:28:33;;;;;;;;;;;23.10;36.00;;;;;;5070797;28;19962;-61
2022/03/27 08:30:59;;;;;;;;;;;23.10;36.00;;;;;;5071148;28;19912;-61
2022/03/27 08:33:24;;;;;;;;;;;23.10;36.00;;;;;;5071703;28;19912;-61
2022/03/27 08:35:50;;;;;;;;;;;23.00;35.90;;;;;;5067080;28;19920;-61
2022/03/27 08:38:17;;;;;;;;;;;23.00;35.90;;;;;;5068065;28;19944;-61
2022/03/27 08:40:43;;;;;;;;;;;23.00;35.90;;;;;;5064440;28;19916;-61
2022/03/27 08:43:09;;;;;;;;;;;23.00;35.90;;;;;;5062714;28;19923;-61
2022/03/27 08:45:35;;;;;;;;;;;23.10;36.10;;;;;;5049985;28;19916;-61
2022/03/27 08:48:00;;;;;;;;;;;23.10;36.00;;;;;;5071820;28;20016;-61
2022/03/27 08:50:30;;;;;;;;;;;23.10;36.00;;;;;;5069202;28;19982;-61
2022/03/27 08:52:59;;;;;;;;;;;23.20;36.10;;;;;;5070485;28;19924;-60
2022/03/27 08:55:39;;;;;;;;;;;23.20;36.10;;;;;;5050193;28;19947;-62
2022/03/27 08:58:04;;;;;;;;;;;23.20;36.10;;;;;;5066197;28;20317;-60
2022/03/27 09:00:30;;;;;;;;;;;23.10;36.00;;;;;;5066026;28;19912;-59
2022/03/27 09:02:56;;;;;;;;;;;23.10;36.30;;;;;;5068947;28;20384;-60
2022/03/27 09:05:22;;;;;;;;;;;23.00;36.60;;;;;;5063108;28;19921;-62
2022/03/27 09:07:48;;;;;;;;;;;22.90;36.80;;;;;;5073720;28;20592;-62
2022/03/27 09:10:14;;;;;;;;;;;22.90;37.10;;;;;;5071814;28;19908;-62
2022/03/27 09:12:39;;;;;;;;;;;22.80;37.10;;;;;;5071949;28;20360;-63
2022/03/27 09:15:05;;;;;;;;;;;22.70;37.00;;;;;;5061868;28;19928;-62
2022/03/27 09:17:30;;;;;;;;;;;22.80;37.20;;;;;;5044249;28;19996;-62
2022/03/27 09:19:56;;;;;;;;;;;22.80;37.10;;;;;;5061242;28;19954;-62
2022/03/27 09:22:22;;;;;;;;;;;22.80;37.30;;;;;;5068338;28;20397;-62
2022/03/27 09:24:55;;;;;;;;;;;22.80;37.40;;;;;;5045201;28;19913;-62
2022/03/27 09:27:27;;;;;;;;;;;22.70;37.40;;;;;;5059432;28;20506;-61
2022/03/27 09:29:54;;;;;;;;;;;22.70;37.50;;;;;;5076146;28;19920;-61
2022/03/27 09:32:26;;;;;;;;;;;22.70;37.70;;;;;;5078863;28;19934;-61
2022/03/27 09:34:58;;;;;;;;;;;22.70;37.80;;;;;;5074467;28;19912;-62
2022/03/27 09:37:34;;;;;;;;;;;22.70;38.00;;;;;;5075585;28;19908;-62
2022/03/27 09:39:59;;;;;;;;;;;22.70;38.10;;;;;;5075701;28;19924;-61
2022/03/27 09:42:25;;;;;;;;;;;22.70;38.30;;;;;;5073413;28;20291;-61
2022/03/27 09:45:08;;;;;;;;;;;22.60;38.00;;;;;;5074403;28;20011;-62
2022/03/27 09:47:33;;;;;;;;;;;22.60;38.40;;;;;;5072899;28;19916;-61
2022/03/27 09:49:59;;;;;;;;;;;22.60;38.40;;;;;;5072054;28;20436;-61
2022/03/27 09:52:24;;;;;;;;;;;22.60;38.60;;;;;;5067852;28;19912;-62
2022/03/27 09:54:53;;;;;;;;;;;22.50;38.50;;;;;;5062378;28;19917;-62
2022/03/27 09:57:28;;;;;;;;;;;22.60;38.70;;;;;;5061805;28;20290;-62
2022/03/27 09:59:54;;;;;;;;;;;22.60;38.50;;;;;;5057357;28;20023;-62
2022/03/27 10:02:21;;;;;;;;;;;22.60;38.30;;;;;;5063671;28;19923;-61
2022/03/27 10:04:52;;;;;;;;;;;22.70;38.50;;;;;;5056804;28;19929;-62
2022/03/27 10:07:18;;;;;;;;;;;22.70;38.50;;;;;;5060464;28;19916;-62
2022/03/27 10:09:44;;;;;;;;;;;22.60;38.50;;;;;;5056889;28;19917;-62
2022/03/27 10:12:09;;;;;;;;;;;22.70;38.60;;;;;;5060819;28;19924;-62
2022/03/27 10:14:35;;;;;;;;;;;22.70;38.60;;;;;;5060987;28;19935;-62
2022/03/27 10:17:01;;;;;;;;;;;22.70;38.60;;;;;;5061952;28;19928;-62
2022/03/27 10:19:32;;;;;;;;;;;22.70;38.60;;;;;;5062502;28;19967;-62
2022/03/27 10:21:58;;;;;;;;;;;22.80;38.60;;;;;;5058016;28;19912;-62
2022/03/27 10:24:26;;;;;;;;;;;22.90;38.70;;;;;;5059760;28;19964;-62
2022/03/27 10:26:55;;;;;;;;;;;22.90;38.80;;;;;;5061758;28;19925;-62
2022/03/27 10:29:21;;;;;;;;;;;22.80;38.80;;;;;;5062130;28;20493;-62
2022/03/27 10:31:46;;;;;;;;;;;22.90;38.90;;;;;;5047446;28;19977;-62
2022/03/27 10:34:13;;;;;;;;;;;22.90;39.00;;;;;;5058275;28;19916;-62
2022/03/27 10:36:42;;;;;;;;;;;22.90;39.20;;;;;;5044776;28;20059;-62
2022/03/27 10:39:28;;;;;;;;;;;22.90;39.20;;;;;;5060466;28;19916;-62
2022/03/27 10:41:54;;;;;;;;;;;22.90;39.30;;;;;;5060013;28;20317;-62
2022/03/27 10:44:19;;;;;;;;;;;22.90;39.30;;;;;;5062074;28;19932;-62
2022/03/27 10:46:47;;;;;;;;;;;22.90;39.40;;;;;;5069605;28;19916;-62
2022/03/27 10:49:14;;;;;;;;;;;22.80;39.50;;;;;;5056493;28;20344;-62
2022/03/27 10:51:40;;;;;;;;;;;22.70;39.60;;;;;;5053431;28;19913;-62
2022/03/27 10:54:07;;;;;;;;;;;22.70;39.60;;;;;;5053401;28;19915;-62
2022/03/27 10:56:32;;;;;;;;;;;22.70;39.50;;;;;;5072132;28;20357;-61
2022/03/27 10:59:08;;;;;;;;;;;22.70;39.60;;;;;;5073817;28;19955;-62
2022/03/27 11:01:38;;;;;;;;;;;22.80;39.60;;;;;;5057609;28;19908;-63
2022/03/27 11:04:07;;;;;;;;;;;22.90;39.60;;;;;;5070710;28;19921;-62
2022/03/27 11:06:33;;;;;;;;;;;22.80;39.80;;;;;;5073766;28;19963;-62
2022/03/27 11:08:59;;;;;;;;;;;22.80;39.60;;;;;;5055311;28;19923;-62
2022/03/27 11:11:37;;;;;;;;;;;22.80;39.20;;;;;;5068160;28;19908;-62
2022/03/27 11:14:03;;;;;;;;;;;22.80;39.70;;;;;;5076686;28;20003;-61
2022/03/27 11:16:28;;;;;;;;;;;22.80;39.90;;;;;;5071040;28;19951;-61
2022/03/27 11:18:54;;;;;;;;;;;22.70;40.00;;;;;;5077438;28;19995;-62
2022/03/27 11:21:28;;;;;;;;;;;22.70;40.10;;;;;;5075481;28;19916;-62
2022/03/27 11:24:03;;;;;;;;;;;22.70;40.50;;;;;;5075004;28;20363;-61
2022/03/27 11:26:31;;;;;;;;;;;22.60;40.30;;;;;;5074410;28;19920;-62
2022/03/27 11:28:59;;;;;;;;;;;22.60;40.30;;;;;;5072052;28;19979;-62
2022/03/27 11:31:25;;;;;;;;;;;22.60;40.40;;;;;;5067842;28;19909;-61
2022/03/27 11:34:11;;;;;;;;;;;22.60;40.50;;;;;;5075851;28;19961;-62
2022/03/27 11:36:37;;;;;;;;;;;22.60;40.30;;;;;;5073799;28;19912;-62
2022/03/27 11:39:08;;;;;;;;;;;22.60;40.40;;;;;;5055194;28;19950;-61
2022/03/27 11:41:44;;;;;;;;;;;22.60;40.40;;;;;;5053572;28;19913;-62
2022/03/27 11:47:16;;;;;;;;;;;22.70;40.40;;;;;;5069255;28;20011;-62
2022/03/27 11:49:42;;;;;;;;;;;22.70;40.30;;;;;;5060515;28;19913;-61
2022/03/27 11:52:14;;;;;;;;;;;22.80;40.20;;;;;;5046953;28;19931;-61
2022/03/27 11:54:40;;;;;;;;;;;22.80;40.20;;;;;;5059156;28;19922;-61
2022/03/27 11:57:06;;;;;;;;;;;22.70;40.10;;;;;;5041588;28;19924;-61
2022/03/27 11:59:42;;;;;;;;;;;22.90;40.20;;;;;;5060837;28;19987;-61
2022/03/27 12:02:08;;;;;;;;;;;22.90;40.20;;;;;;5063955;28;19961;-62
2022/03/27 12:04:34;;;;;;;;;;;23.00;40.10;;;;;;5060410;28;19924;-61
2022/03/27 12:06:59;;;;;;;;;;;23.00;40.00;;;;;;5059653;28;19920;-61
2022/03/27 12:09:29;;;;;;;;;;;23.00;40.00;;;;;;5059212;28;19982;-61
2022/03/27 12:12:08;;;;;;;;;;;23.00;40.00;;;;;;5059453;28;19939;-62
2022/03/27 12:14:49;;;;;;;;;;;23.00;40.20;;;;;;5060016;28;19912;-62
2022/03/27 12:17:15;;;;;;;;;;;23.00;40.30;;;;;;5062229;28;19913;-61
2022/03/27 12:19:40;;;;;;;;;;;23.00;40.40;;;;;;5060019;28;19962;-62
2022/03/27 12:22:06;;;;;;;;;;;22.90;40.40;;;;;;5061428;28;19912;-61
2022/03/27 12:24:41;;;;;;;;;;;22.90;40.40;;;;;;5057229;28;19917;-62
2022/03/27 12:29:51;;;;;;;;;;;22.90;40.50;;;;;;5056308;28;19927;-61
2022/03/27 12:32:17;;;;;;;;;;;22.90;40.50;;;;;;5056824;28;19921;-62
2022/03/27 12:34:43;;;;;;;;;;;22.80;40.60;;;;;;5063460;28;19960;-61
2022/03/27 12:37:15;;;;;;;;;;;22.90;40.70;;;;;;5057765;28;19913;-61
2022/03/27 12:39:47;;;;;;;;;;;22.90;40.70;;;;;;5060924;28;19917;-61
2022/03/27 12:42:35;;;;;;;;;;;22.90;40.60;;;;;;5061581;28;19966;-61
2022/03/27 12:45:00;;;;;;;;;;;22.90;40.80;;;;;;5057365;28;20288;-61
2022/03/27 12:47:29;;;;;;;;;;;22.90;40.80;;;;;;5060111;28;19913;-61
2022/03/27 12:49:54;;;;;;;;;;;22.90;40.90;;;;;;5059240;28;19913;-61
2022/03/27 12:52:20;;;;;;;;;;;22.90;41.00;;;;;;5059803;28;19913;-61
2022/03/27 12:54:56;;;;;;;;;;;22.80;40.80;;;;;;5058564;28;19920;-61
2022/03/27 12:57:21;;;;;;;;;;;22.80;40.90;;;;;;5063390;28;20059;-61
2022/03/27 12:59:47;;;;;;;;;;;22.80;41.00;;;;;;5058702;28;19983;-62
2022/03/27 13:02:42;;;;;;;;;;;22.90;41.10;;;;;;5058555;28;20527;-61
2022/03/27 13:05:07;;;;;;;;;;;22.90;41.20;;;;;;5045283;28;20269;-62
2022/03/27 13:07:55;;;;;;;;;;;22.90;41.10;;;;;;5058658;28;19939;-61
2022/03/27 13:10:21;;;;;;;;;;;22.90;40.90;;;;;;5058574;28;19966;-61
2022/03/27 13:12:54;;;;;;;;;;;22.90;41.00;;;;;;5049895;28;19979;-61
2022/03/27 13:15:39;;;;;;;;;;;22.90;41.00;;;;;;5063318;28;19913;-61
2022/03/27 13:18:17;;;;;;;;;;;23.00;41.00;;;;;;5047756;28;19923;-61
2022/03/27 13:20:44;;;;;;;;;;;23.00;40.80;;;;;;5062059;28;19921;-61
2022/03/27 13:23:09;;;;;;;;;;;23.00;41.00;;;;;;5058453;28;19912;-61
2022/03/27 13:25:38;;;;;;;;;;;23.10;41.00;;;;;;5058735;28;19971;-61
2022/03/27 13:28:04;;;;;;;;;;;23.10;41.00;;;;;;5059219;28;19962;-61
2022/03/27 13:30:29;;;;;;;;;;;23.10;41.00;;;;;;5062678;28;19924;-61
2022/03/27 13:32:55;;;;;;;;;;;23.10;40.70;;;;;;5058544;28;19917;-61
2022/03/27 13:35:21;;;;;;;;;;;23.20;40.70;;;;;;5060909;28;19921;-61
2022/03/27 13:37:47;;;;;;;;;;;23.20;40.60;;;;;;5060351;28;19924;-61
2022/03/27 13:40:13;;;;;;;;;;;23.30;40.60;;;;;;5063724;28;21012;-61
2022/03/27 13:45:24;;;;;;;;;;;23.30;40.80;;;;;;5061136;28;20465;-61
2022/03/27 13:47:49;;;;;;;;;;;23.30;40.70;;;;;;5060305;28;19916;-61
2022/03/27 13:50:15;;;;;;;;;;;23.30;40.60;;;;;;5061017;28;19927;-62
2022/03/27 13:52:40;;;;;;;;;;;23.30;40.70;;;;;;5058158;28;20502;-61
2022/03/27 13:55:06;;;;;;;;;;;23.30;40.70;;;;;;5059044;28;20429;-61
2022/03/27 13:57:31;;;;;;;;;;;23.30;40.70;;;;;;5047450;28;20382;-61
2022/03/27 13:59:57;;;;;;;;;;;23.30;40.70;;;;;;5061553;28;19920;-61
2022/03/27 14:02:23;;;;;;;;;;;23.40;40.60;;;;;;5059996;28;20335;-61
2022/03/27 14:04:48;;;;;;;;;;;23.40;40.50;;;;;;5043614;28;19924;-62
2022/03/27 14:07:14;;;;;;;;;;;23.40;40.60;;;;;;5061848;28;19912;-61
2022/03/27 14:09:41;;;;;;;;;;;23.40;40.80;;;;;;5062882;28;19916;-62
2022/03/27 14:12:07;;;;;;;;;;;23.40;40.90;;;;;;5064404;28;19920;-61
2022/03/27 14:14:32;;;;;;;;;;;23.30;40.90;;;;;;5064314;28;19913;-61
2022/03/27 14:16:58;;;;;;;;;;;23.30;40.90;;;;;;5062364;28;19916;-61
2022/03/27 14:19:23;;;;;;;;;;;23.40;41.10;;;;;;5069795;28;19920;-61
2022/03/27 14:21:50;;;;;;;;;;;23.40;41.10;;;;;;5047113;28;19924;-61
2022/03/27 14:24:16;;;;;;;;;;;23.40;41.70;;;;;;5063783;28;19916;-61
2022/03/27 14:26:42;;;;;;;;;;;23.40;41.10;;;;;;5079753;28;19924;-61
2022/03/27 14:29:08;;;;;;;;;;;23.40;41.10;;;;;;5062882;28;20339;-61
2022/03/27 14:31:34;;;;;;;;;;;23.40;41.20;;;;;;5065623;28;20033;-61